Deseret, Utah
Current Conditions -  °F | °C
As of 1:35 AM on Sunday 23 Nov 2014 (Local Time) from KDTA Reporting Station
Scattered Clouds Scattered Clouds  
Wind Chill: 34°   Ceiling: Unl
Heat Index: 34°   Visibility: 10mi
Dew Point: 32°   Wind: 0mph
Humidity: 95%   Direction: NA
Pressure: 30.02"   Gusts: NA
Location:  39.3657°N, 112.477°W
Report Text: KDTA 230835Z AUTO 00000KT 10SM SCT045 SCT050 SCT110 01/00 A3002 RMK AO1 T00090002
Loading
Personal Weather Stations






























Interactive Weather Map New forecast layout! Learn more

10-Day Weather Forecast

Advertisements
Track Severe Weather on mobile